createdAt,value
2018-03-02T00:00:10.814Z,0.00
2018-03-02T00:01:10.637Z,0.00
2018-03-02T00:02:10.546Z,0.00
2018-03-02T00:03:10.425Z,0.00
2018-03-02T00:04:10.344Z,0.00
2018-03-02T00:05:10.223Z,0.00
2018-03-02T00:06:10.110Z,0.00
2018-03-02T00:07:09.989Z,0.00
2018-03-02T00:08:09.883Z,0.00
2018-03-02T00:09:09.780Z,0.00
2018-03-02T00:10:09.720Z,0.00
2018-03-02T00:11:09.567Z,0.00
2018-03-02T00:12:09.475Z,0.00
2018-03-02T00:13:09.367Z,0.00
2018-03-02T00:14:09.267Z,0.00
2018-03-02T00:15:09.149Z,0.00
2018-03-02T00:16:09.081Z,0.00
2018-03-02T00:17:08.948Z,0.00
2018-03-02T00:18:08.847Z,0.00
2018-03-02T00:19:08.741Z,0.00
2018-03-02T00:20:08.635Z,0.00
2018-03-02T00:21:08.566Z,0.00
2018-03-02T00:22:08.534Z,0.00
2018-03-02T00:23:08.379Z,0.00
2018-03-02T00:24:08.252Z,0.00
2018-03-02T00:25:08.162Z,0.00
2018-03-02T00:26:08.029Z,0.00
2018-03-02T00:27:07.915Z,0.00
2018-03-02T00:28:07.895Z,0.00
2018-03-02T00:29:07.729Z,0.00
2018-03-02T00:30:07.626Z,0.00
2018-03-02T00:31:07.537Z,0.00
2018-03-02T00:32:07.412Z,0.00
2018-03-02T00:33:07.311Z,0.00
2018-03-02T00:34:07.201Z,0.00
2018-03-02T00:35:07.063Z,0.00
2018-03-02T00:36:06.960Z,0.00
2018-03-02T00:37:06.878Z,0.00
2018-03-02T00:38:06.760Z,0.00
2018-03-02T00:39:06.656Z,0.00
2018-03-02T00:40:06.592Z,0.00
2018-03-02T00:41:06.446Z,0.00
2018-03-02T00:42:06.352Z,0.00
2018-03-02T00:43:06.241Z,0.00
2018-03-02T00:44:06.137Z,0.00
2018-03-02T00:45:06.059Z,0.00
2018-03-02T00:46:05.958Z,0.00
2018-03-02T00:47:05.852Z,0.00
2018-03-02T00:48:05.763Z,0.00
2018-03-02T00:49:05.634Z,0.00
2018-03-02T00:50:05.544Z,0.00
2018-03-02T00:51:05.431Z,0.00
2018-03-02T00:52:05.361Z,0.00
2018-03-02T00:53:05.211Z,0.00
2018-03-02T00:54:05.126Z,0.00
2018-03-02T00:55:05.033Z,0.00
2018-03-02T00:56:04.915Z,0.00
2018-03-02T00:57:04.809Z,0.00
2018-03-02T00:58:04.749Z,0.00
2018-03-02T00:59:04.593Z,0.00
2018-03-02T01:00:04.507Z,0.00
2018-03-02T01:01:04.365Z,0.00
2018-03-02T01:02:04.248Z,0.00
2018-03-02T01:03:04.156Z,0.00
2018-03-02T01:04:04.127Z,0.00
2018-03-02T01:05:03.953Z,0.00
2018-03-02T01:06:03.840Z,0.00
2018-03-02T01:07:03.740Z,0.00
2018-03-02T01:08:03.630Z,0.00
2018-03-02T01:09:03.536Z,0.00
2018-03-02T01:10:03.432Z,0.00
2018-03-02T01:11:03.317Z,0.00
2018-03-02T01:12:03.237Z,0.00
2018-03-02T01:13:03.100Z,0.00
2018-03-02T01:14:03.060Z,0.00
2018-03-02T01:15:02.925Z,0.00
2018-03-02T01:16:02.846Z,0.00
2018-03-02T01:17:02.704Z,0.00
2018-03-02T01:18:02.605Z,0.00
2018-03-02T01:19:02.501Z,0.00
2018-03-02T01:20:02.443Z,0.00
2018-03-02T01:21:02.303Z,0.00
2018-03-02T01:22:02.261Z,0.00
2018-03-02T01:23:02.117Z,0.00
2018-03-02T01:24:01.982Z,0.00
2018-03-02T01:25:01.885Z,0.00
2018-03-02T01:26:01.774Z,0.00
2018-03-02T01:27:01.645Z,0.00
2018-03-02T01:28:01.586Z,0.00
2018-03-02T01:29:01.432Z,0.00
2018-03-02T01:30:01.322Z,0.00
2018-03-02T01:31:01.242Z,0.00
2018-03-02T01:32:01.127Z,0.00
2018-03-02T01:33:01.018Z,0.00
2018-03-02T01:34:00.947Z,0.00
2018-03-02T01:35:00.800Z,0.00
2018-03-02T01:36:00.695Z,0.00
2018-03-02T01:37:00.594Z,0.00
2018-03-02T01:38:00.487Z,0.00
2018-03-02T01:39:00.378Z,0.00
2018-03-02T01:40:00.369Z,0.00
2018-03-02T01:41:00.216Z,0.00
2018-03-02T01:42:00.090Z,0.00
2018-03-02T01:42:59.987Z,0.00
2018-03-02T01:43:59.901Z,0.00
2018-03-02T01:44:59.816Z,0.00
2018-03-02T01:45:59.728Z,0.00
2018-03-02T01:46:59.578Z,0.00
2018-03-02T01:47:59.469Z,0.00
2018-03-02T01:48:59.363Z,0.00
2018-03-02T01:49:59.278Z,0.00
2018-03-02T01:50:59.138Z,0.00
2018-03-02T01:51:59.081Z,0.00
2018-03-02T01:52:58.923Z,0.00
2018-03-02T01:53:58.801Z,0.00
2018-03-02T01:54:58.713Z,0.00
2018-03-02T01:55:58.610Z,0.00
2018-03-02T01:56:58.502Z,0.00
2018-03-02T01:57:58.482Z,0.00
2018-03-02T01:58:58.302Z,0.00
2018-03-02T01:59:58.186Z,0.00
2018-03-02T02:00:58.126Z,0.00
2018-03-02T02:01:57.968Z,0.00
2018-03-02T02:02:57.869Z,0.00
2018-03-02T02:03:57.779Z,0.00
2018-03-02T02:04:57.654Z,0.00
2018-03-02T02:05:57.551Z,0.00
2018-03-02T02:06:57.473Z,0.00
2018-03-02T02:07:57.396Z,0.00
2018-03-02T02:08:57.264Z,0.00
2018-03-02T02:09:57.214Z,0.00
2018-03-02T02:10:57.048Z,0.00
2018-03-02T02:11:56.944Z,0.00
2018-03-02T02:12:56.883Z,0.00
2018-03-02T02:13:56.739Z,0.00
2018-03-02T02:14:56.669Z,0.00
2018-03-02T02:15:56.572Z,0.00
2018-03-02T02:16:56.443Z,0.00
2018-03-02T02:17:56.304Z,0.00
2018-03-02T02:18:56.224Z,0.00
2018-03-02T02:19:56.111Z,0.00
2018-03-02T02:20:56.012Z,0.00
2018-03-02T02:21:55.915Z,0.00
2018-03-02T02:22:55.791Z,0.00
2018-03-02T02:23:55.665Z,0.00
2018-03-02T02:24:55.585Z,0.00
2018-03-02T02:25:55.465Z,0.00
2018-03-02T02:26:55.349Z,0.00
2018-03-02T02:27:55.265Z,0.00
2018-03-02T02:28:55.129Z,0.00
2018-03-02T02:29:55.029Z,0.00
2018-03-02T02:30:54.928Z,0.00
2018-03-02T02:31:54.826Z,0.00
2018-03-02T02:32:54.731Z,0.00
2018-03-02T02:33:54.692Z,0.00
2018-03-02T02:34:54.532Z,0.00
2018-03-02T02:35:54.440Z,0.00
2018-03-02T02:36:54.327Z,0.00
2018-03-02T02:37:54.208Z,0.00
2018-03-02T02:38:54.131Z,0.00
2018-03-02T02:39:54.037Z,0.00
2018-03-02T02:40:53.923Z,0.00
2018-03-02T02:41:53.834Z,0.00
2018-03-02T02:42:53.698Z,0.00
2018-03-02T02:43:53.612Z,0.00
2018-03-02T02:44:53.494Z,0.00
2018-03-02T02:45:53.401Z,0.00
2018-03-02T02:46:53.269Z,0.00
2018-03-02T02:47:53.140Z,0.00
2018-03-02T02:48:53.044Z,0.00
2018-03-02T02:49:52.931Z,0.00
2018-03-02T02:50:52.837Z,0.00
2018-03-02T02:51:52.777Z,0.00
2018-03-02T02:52:52.619Z,0.00
2018-03-02T02:53:52.513Z,0.00
2018-03-02T02:54:52.410Z,0.00
2018-03-02T02:55:52.306Z,0.00
2018-03-02T02:56:52.205Z,0.00
2018-03-02T02:57:52.121Z,0.00
2018-03-02T02:58:51.988Z,0.00
2018-03-02T02:59:51.885Z,0.00
2018-03-02T03:00:51.810Z,0.00
2018-03-02T03:01:51.709Z,0.00
2018-03-02T03:02:51.597Z,0.00
2018-03-02T03:03:51.556Z,0.00
2018-03-02T03:04:51.380Z,0.00
2018-03-02T03:05:51.284Z,0.00
2018-03-02T03:06:51.181Z,0.00
2018-03-02T03:07:51.067Z,0.00
2018-03-02T03:08:50.954Z,0.00
2018-03-02T03:09:50.890Z,0.00
2018-03-02T03:10:50.741Z,0.00
2018-03-02T03:11:50.640Z,0.00
2018-03-02T03:12:50.571Z,0.00
2018-03-02T03:13:50.443Z,0.00
2018-03-02T03:14:50.306Z,0.00
2018-03-02T03:15:50.239Z,0.00
2018-03-02T03:16:50.097Z,0.00
2018-03-02T03:17:49.994Z,0.00
2018-03-02T03:18:49.891Z,0.00
2018-03-02T03:19:49.785Z,0.00
2018-03-02T03:20:49.681Z,0.00
2018-03-02T03:21:49.594Z,0.00
2018-03-02T03:22:49.464Z,0.00
2018-03-02T03:23:49.372Z,0.00
2018-03-02T03:24:49.275Z,0.00
2018-03-02T03:25:49.170Z,0.00
2018-03-02T03:26:49.051Z,0.00
2018-03-02T03:27:48.978Z,0.00
2018-03-02T03:28:48.863Z,0.00
2018-03-02T03:29:48.751Z,0.00
2018-03-02T03:30:48.670Z,0.00
2018-03-02T03:31:48.570Z,0.00
2018-03-02T03:32:48.448Z,0.00
2018-03-02T03:33:48.366Z,0.00
2018-03-02T03:34:48.214Z,0.00
2018-03-02T03:35:48.143Z,0.00
2018-03-02T03:36:48.040Z,0.00
2018-03-02T03:37:47.915Z,0.00
2018-03-02T03:38:47.814Z,0.00
2018-03-02T03:39:47.742Z,0.00
2018-03-02T03:40:47.591Z,0.00
2018-03-02T03:41:47.516Z,0.00
2018-03-02T03:42:47.371Z,0.00
2018-03-02T03:43:47.265Z,0.00
2018-03-02T03:44:47.161Z,0.00
2018-03-02T03:45:47.105Z,0.00
2018-03-02T03:46:46.947Z,0.00
2018-03-02T03:47:46.845Z,0.00
2018-03-02T03:48:46.740Z,0.00
2018-03-02T03:49:46.632Z,0.00
2018-03-02T03:50:46.528Z,0.00
2018-03-02T03:51:46.449Z,0.00
2018-03-02T03:52:46.320Z,0.00
2018-03-02T03:53:46.221Z,0.00
2018-03-02T03:54:46.118Z,0.00
2018-03-02T03:55:46.005Z,0.00
2018-03-02T03:56:45.946Z,0.00
2018-03-02T03:57:45.846Z,0.00
2018-03-02T03:58:45.723Z,0.00
2018-03-02T03:59:45.605Z,0.00
2018-03-02T04:00:45.506Z,0.00
2018-03-02T04:01:45.410Z,0.00
2018-03-02T04:02:45.289Z,0.00
2018-03-02T04:03:45.227Z,0.00
2018-03-02T04:04:45.082Z,0.00
2018-03-02T04:05:44.988Z,0.00
2018-03-02T04:06:44.886Z,0.00
2018-03-02T04:07:44.782Z,0.00
2018-03-02T04:08:44.682Z,0.00
2018-03-02T04:09:44.603Z,0.00
2018-03-02T04:10:44.422Z,0.00
2018-03-02T04:11:44.310Z,0.00
2018-03-02T04:12:44.213Z,0.00
2018-03-02T04:13:44.112Z,0.00
2018-03-02T04:14:43.995Z,0.00
2018-03-02T04:15:43.918Z,0.00
2018-03-02T04:16:43.796Z,0.00
2018-03-02T04:17:43.683Z,0.00
2018-03-02T04:18:43.587Z,0.00
2018-03-02T04:19:43.485Z,0.00
2018-03-02T04:20:43.377Z,0.00
2018-03-02T04:21:43.325Z,0.00
2018-03-02T04:22:43.159Z,0.00
2018-03-02T04:23:43.056Z,0.00
2018-03-02T04:24:42.958Z,0.00
2018-03-02T04:25:42.878Z,0.00
2018-03-02T04:26:42.773Z,0.00
2018-03-02T04:27:42.724Z,0.00
2018-03-02T04:28:42.575Z,0.00
2018-03-02T04:29:42.506Z,0.00
2018-03-02T04:30:42.324Z,0.00
2018-03-02T04:31:42.222Z,0.00
2018-03-02T04:32:42.111Z,0.00
2018-03-02T04:33:42.082Z,0.00
2018-03-02T04:34:41.940Z,0.00
2018-03-02T04:35:41.831Z,0.00
2018-03-02T04:36:41.686Z,0.00
2018-03-02T04:37:41.580Z,0.00
2018-03-02T04:38:41.491Z,0.00
2018-03-02T04:39:41.414Z,0.00
2018-03-02T04:40:41.291Z,0.00
2018-03-02T04:41:41.238Z,0.00
2018-03-02T04:42:41.147Z,0.00
2018-03-02T04:43:40.953Z,0.00
2018-03-02T04:44:40.841Z,0.00
2018-03-02T04:45:40.826Z,0.00
2018-03-02T04:46:40.650Z,0.00
2018-03-02T04:47:40.544Z,0.00
2018-03-02T04:48:40.432Z,0.00
2018-03-02T04:49:40.361Z,0.00
2018-03-02T04:50:40.248Z,0.00
2018-03-02T04:51:40.167Z,0.00
2018-03-02T04:52:40.014Z,0.00
2018-03-02T04:53:39.896Z,0.00
2018-03-02T04:54:39.812Z,0.00
2018-03-02T04:55:39.709Z,0.00
2018-03-02T04:56:39.607Z,0.00
2018-03-02T04:57:39.562Z,0.00
2018-03-02T04:58:39.397Z,0.00
2018-03-02T04:59:39.289Z,0.00
2018-03-02T05:00:39.198Z,0.00
2018-03-02T05:01:39.091Z,0.00
2018-03-02T05:02:38.981Z,0.00
2018-03-02T05:03:38.946Z,0.00
2018-03-02T05:04:38.755Z,0.00
2018-03-02T05:05:38.636Z,0.00
2018-03-02T05:06:38.542Z,0.00
2018-03-02T05:07:38.432Z,0.00
2018-03-02T05:08:38.315Z,0.00
2018-03-02T05:09:38.259Z,0.00
2018-03-02T05:10:38.104Z,0.00
2018-03-02T05:11:38.007Z,0.00
2018-03-02T05:12:37.923Z,0.00
2018-03-02T05:13:37.803Z,0.00
2018-03-02T05:14:37.702Z,0.00
2018-03-02T05:15:37.631Z,0.00
2018-03-02T05:16:37.483Z,0.00
2018-03-02T05:17:37.389Z,0.00
2018-03-02T05:18:37.267Z,0.00
2018-03-02T05:19:37.162Z,0.00
2018-03-02T05:20:37.178Z,0.00
2018-03-02T05:21:37.013Z,0.00
2018-03-02T05:22:36.890Z,0.00
2018-03-02T05:23:36.780Z,0.00
2018-03-02T05:24:36.691Z,0.00
2018-03-02T05:25:36.607Z,0.00
2018-03-02T05:26:36.473Z,0.00
2018-03-02T05:27:36.395Z,0.00
2018-03-02T05:28:36.244Z,0.00
2018-03-02T05:29:36.144Z,0.00
2018-03-02T05:30:36.060Z,0.00
2018-03-02T05:31:35.940Z,0.00
2018-03-02T05:32:36.582Z,0.00
2018-03-02T05:33:35.806Z,0.00
2018-03-02T05:34:35.617Z,0.00
2018-03-02T05:35:35.489Z,0.00
2018-03-02T05:36:35.388Z,0.00
2018-03-02T05:37:35.277Z,0.00
2018-03-02T05:38:35.170Z,0.00
2018-03-02T05:39:35.096Z,0.00
2018-03-02T05:40:34.951Z,5.63
2018-03-02T05:41:34.868Z,5.63
2018-03-02T05:42:34.743Z,5.63
2018-03-02T05:43:34.639Z,11.25
2018-03-02T05:44:34.536Z,11.25
2018-03-02T05:45:34.441Z,11.25
2018-03-02T05:46:34.314Z,11.25
2018-03-02T05:47:34.208Z,16.88
2018-03-02T05:48:34.095Z,16.88
2018-03-02T05:49:34.050Z,16.88
2018-03-02T05:50:33.930Z,16.88
2018-03-02T05:51:33.889Z,22.50
2018-03-02T05:52:33.708Z,22.50
2018-03-02T05:53:33.612Z,22.50
2018-03-02T05:54:33.523Z,28.13
2018-03-02T05:55:33.435Z,28.13
2018-03-02T05:56:33.306Z,28.13
2018-03-02T05:57:33.252Z,33.75
2018-03-02T05:58:33.082Z,33.75
2018-03-02T05:59:32.956Z,39.38
2018-03-02T06:00:32.855Z,39.38
2018-03-02T06:01:32.786Z,45.00
2018-03-02T06:02:32.652Z,50.63
2018-03-02T06:03:32.615Z,56.25
2018-03-02T06:04:32.429Z,61.88
2018-03-02T06:05:32.310Z,61.88
2018-03-02T06:06:32.209Z,67.50
2018-03-02T06:07:32.136Z,67.50
2018-03-02T06:08:32.010Z,73.13
2018-03-02T06:09:31.961Z,78.75
2018-03-02T06:10:31.804Z,84.38
2018-03-02T06:11:31.681Z,90.00
2018-03-02T06:12:31.618Z,95.63
2018-03-02T06:13:31.487Z,101.25
2018-03-02T06:14:31.368Z,101.25
2018-03-02T06:15:31.286Z,106.88
2018-03-02T06:16:31.171Z,118.13
2018-03-02T06:17:31.071Z,123.75
2018-03-02T06:18:30.975Z,129.38
2018-03-02T06:19:30.923Z,135.00
2018-03-02T06:20:30.764Z,135.00
2018-03-02T06:21:30.679Z,135.00
2018-03-02T06:22:30.541Z,140.63
2018-03-02T06:23:30.445Z,140.63
2018-03-02T06:24:30.359Z,146.25
2018-03-02T06:25:30.270Z,151.88
2018-03-02T06:26:30.142Z,151.88
2018-03-02T06:27:30.080Z,157.50
2018-03-02T06:28:29.958Z,163.13
2018-03-02T06:29:29.837Z,174.38
2018-03-02T06:30:29.769Z,174.38
2018-03-02T06:31:29.628Z,168.75
2018-03-02T06:32:29.534Z,157.50
2018-03-02T06:33:29.408Z,157.50
2018-03-02T06:34:29.282Z,157.50
2018-03-02T06:35:29.171Z,163.13
2018-03-02T06:36:29.074Z,174.38
2018-03-02T06:37:28.963Z,180.00
2018-03-02T06:38:28.881Z,191.25
2018-03-02T06:39:28.787Z,208.13
2018-03-02T06:40:28.660Z,219.38
2018-03-02T06:41:28.550Z,230.63
2018-03-02T06:42:28.445Z,236.25
2018-03-02T06:43:28.320Z,241.88
2018-03-02T06:44:28.229Z,241.88
2018-03-02T06:45:28.183Z,236.25
2018-03-02T06:46:28.020Z,236.25
2018-03-02T06:47:27.917Z,225.00
2018-03-02T06:48:27.811Z,219.38
2018-03-02T06:49:27.741Z,213.75
2018-03-02T06:50:27.638Z,208.13
2018-03-02T06:51:27.559Z,202.50
2018-03-02T06:52:27.444Z,196.88
2018-03-02T06:53:27.302Z,196.88
2018-03-02T06:54:27.227Z,202.50
2018-03-02T06:55:27.131Z,208.13
2018-03-02T06:56:26.995Z,213.75
2018-03-02T06:57:26.959Z,225.00
2018-03-02T06:58:26.784Z,241.88
2018-03-02T06:59:26.684Z,253.13
2018-03-02T07:00:26.587Z,275.63
2018-03-02T07:01:26.497Z,286.88
2018-03-02T07:02:26.366Z,309.38
2018-03-02T07:03:26.293Z,331.88
2018-03-02T07:04:26.137Z,365.63
2018-03-02T07:05:26.038Z,382.50
2018-03-02T07:06:25.942Z,388.13
2018-03-02T07:07:25.833Z,388.13
2018-03-02T07:08:25.733Z,388.13
2018-03-02T07:09:25.664Z,376.88
2018-03-02T07:10:25.549Z,371.25
2018-03-02T07:11:25.428Z,360.00
2018-03-02T07:12:25.327Z,348.75
2018-03-02T07:13:25.209Z,337.50
2018-03-02T07:14:25.149Z,331.88
2018-03-02T07:15:25.073Z,326.25
2018-03-02T07:16:24.904Z,320.63
2018-03-02T07:17:24.845Z,309.38
2018-03-02T07:18:24.721Z,303.75
2018-03-02T07:19:24.613Z,303.75
2018-03-02T07:20:24.500Z,303.75
2018-03-02T07:21:24.475Z,303.75
2018-03-02T07:22:24.313Z,303.75
2018-03-02T07:23:24.186Z,286.88
2018-03-02T07:24:24.115Z,275.63
2018-03-02T07:25:24.014Z,270.00
2018-03-02T07:26:23.910Z,270.00
2018-03-02T07:27:23.832Z,270.00
2018-03-02T07:28:23.689Z,270.00
2018-03-02T07:29:23.611Z,270.00
2018-03-02T07:30:23.497Z,275.63
2018-03-02T07:31:23.362Z,281.25
2018-03-02T07:32:23.243Z,286.88
2018-03-02T07:33:23.178Z,292.50
2018-03-02T07:34:23.040Z,303.75
2018-03-02T07:35:22.944Z,309.38
2018-03-02T07:36:22.842Z,320.63
2018-03-02T07:37:22.762Z,331.88
2018-03-02T07:38:22.690Z,337.50
2018-03-02T07:39:22.565Z,348.75
2018-03-02T07:40:22.427Z,360.00
2018-03-02T07:41:22.310Z,371.25
2018-03-02T07:42:22.218Z,376.88
2018-03-02T07:43:22.122Z,388.13
2018-03-02T07:44:22.021Z,399.38
2018-03-02T07:45:21.978Z,416.25
2018-03-02T07:46:21.799Z,427.50
2018-03-02T07:47:21.718Z,433.13
2018-03-02T07:48:21.617Z,444.38
2018-03-02T07:49:21.514Z,455.63
2018-03-02T07:50:21.411Z,461.25
2018-03-02T07:51:21.354Z,466.88
2018-03-02T07:52:21.221Z,483.75
2018-03-02T07:53:21.117Z,511.88
2018-03-02T07:54:21.024Z,573.75
2018-03-02T07:55:20.918Z,708.75
2018-03-02T07:56:20.818Z,843.75
2018-03-02T07:57:20.758Z,798.75
2018-03-02T07:58:20.633Z,765.00
2018-03-02T07:59:20.455Z,815.63
2018-03-02T08:00:20.341Z,815.63
2018-03-02T08:01:20.247Z,804.38
2018-03-02T08:02:20.165Z,781.88
2018-03-02T08:03:20.112Z,770.63
2018-03-02T08:04:20.025Z,759.38
2018-03-02T08:05:19.841Z,753.75
2018-03-02T08:06:19.744Z,742.50
2018-03-02T08:07:19.658Z,748.13
2018-03-02T08:08:19.538Z,725.63
2018-03-02T08:09:19.439Z,697.50
2018-03-02T08:10:19.331Z,680.63
2018-03-02T08:11:19.254Z,675.00
2018-03-02T08:12:19.169Z,675.00
2018-03-02T08:13:19.017Z,686.25
2018-03-02T08:14:18.976Z,691.88
2018-03-02T08:15:18.926Z,697.50
2018-03-02T08:16:18.764Z,714.38
2018-03-02T08:17:18.691Z,736.88
2018-03-02T08:18:18.522Z,742.50
2018-03-02T08:19:18.463Z,742.50
2018-03-02T08:20:18.316Z,736.88
2018-03-02T08:21:18.249Z,742.50
2018-03-02T08:22:18.136Z,725.63
2018-03-02T08:23:18.030Z,720.00
2018-03-02T08:24:17.942Z,720.00
2018-03-02T08:25:17.830Z,714.38
2018-03-02T08:26:17.699Z,708.75
2018-03-02T08:27:17.638Z,714.38
2018-03-02T08:28:17.492Z,720.00
2018-03-02T08:29:17.410Z,703.13
2018-03-02T08:30:17.285Z,686.25
2018-03-02T08:31:17.183Z,686.25
2018-03-02T08:32:17.082Z,708.75
2018-03-02T08:33:17.034Z,720.00
2018-03-02T08:34:16.876Z,708.75
2018-03-02T08:35:16.788Z,703.13
2018-03-02T08:36:16.679Z,703.13
2018-03-02T08:37:16.584Z,708.75
2018-03-02T08:38:16.468Z,725.63
2018-03-02T08:39:16.414Z,708.75
2018-03-02T08:40:16.292Z,703.13
2018-03-02T08:41:16.204Z,714.38
2018-03-02T08:42:16.093Z,781.88
2018-03-02T08:43:16.011Z,877.50
2018-03-02T08:44:15.918Z,939.38
2018-03-02T08:45:15.847Z,950.63
2018-03-02T08:46:15.692Z,916.88
2018-03-02T08:47:15.595Z,877.50
2018-03-02T08:48:15.481Z,900.00
2018-03-02T08:49:15.415Z,838.13
2018-03-02T08:50:15.304Z,849.38
2018-03-02T08:51:15.235Z,933.75
2018-03-02T08:52:15.123Z,922.50
2018-03-02T08:53:15.017Z,956.25
2018-03-02T08:54:14.864Z,1051.88
2018-03-02T08:55:14.763Z,1080.00
2018-03-02T08:56:14.664Z,1125.00
2018-03-02T08:57:14.582Z,1186.88
2018-03-02T08:58:14.475Z,1215.00
2018-03-02T08:59:14.356Z,1220.63
2018-03-02T09:00:14.274Z,1220.63
2018-03-02T09:01:14.164Z,1248.75
2018-03-02T09:02:14.059Z,1226.25
2018-03-02T09:03:13.980Z,1265.63
2018-03-02T09:04:13.859Z,1215.00
2018-03-02T09:05:13.761Z,1130.63
2018-03-02T09:06:13.661Z,1091.25
2018-03-02T09:07:13.546Z,1029.38
2018-03-02T09:08:13.474Z,1063.13
2018-03-02T09:09:13.432Z,990.00
2018-03-02T09:10:13.282Z,967.50
2018-03-02T09:11:13.212Z,956.25
2018-03-02T09:12:13.078Z,945.00
2018-03-02T09:13:13.006Z,1023.75
2018-03-02T09:14:12.880Z,1057.50
2018-03-02T09:15:12.841Z,1080.00
2018-03-02T09:16:12.673Z,1068.75
2018-03-02T09:17:12.590Z,1051.88
2018-03-02T09:18:12.459Z,1023.75
2018-03-02T09:19:12.385Z,1068.75
2018-03-02T09:20:12.286Z,1119.38
2018-03-02T09:21:12.181Z,1096.88
2018-03-02T09:22:12.055Z,1175.63
2018-03-02T09:23:11.967Z,1220.63
2018-03-02T09:24:11.877Z,1288.13
2018-03-02T09:25:11.777Z,1288.13
2018-03-02T09:26:11.666Z,1321.88
2018-03-02T09:27:11.619Z,1462.50
2018-03-02T09:28:11.465Z,1535.63
2018-03-02T09:29:11.364Z,1451.25
2018-03-02T09:30:11.649Z,1366.88
2018-03-02T09:31:11.161Z,1355.63
2018-03-02T09:32:11.064Z,1248.75
2018-03-02T09:33:11.005Z,1220.63
2018-03-02T09:34:10.870Z,1203.75
2018-03-02T09:35:10.797Z,1614.38
2018-03-02T09:36:10.704Z,1755.00
2018-03-02T09:37:10.608Z,1721.25
2018-03-02T09:38:10.502Z,1771.88
2018-03-02T09:39:10.440Z,1788.75
2018-03-02T09:40:10.347Z,1845.00
2018-03-02T09:41:10.205Z,1794.38
2018-03-02T09:42:10.121Z,1805.63
2018-03-02T09:43:10.010Z,1687.50
2018-03-02T09:44:09.914Z,1642.50
2018-03-02T09:45:09.866Z,1811.25
2018-03-02T09:46:09.690Z,1833.75
2018-03-02T09:47:09.590Z,1923.75
2018-03-02T09:48:09.503Z,2070.00
2018-03-02T09:49:09.394Z,2182.50
2018-03-02T09:50:09.289Z,2154.38
2018-03-02T09:51:09.231Z,2238.75
2018-03-02T09:52:09.099Z,2306.25
2018-03-02T09:53:09.011Z,2227.50
2018-03-02T09:54:08.906Z,2255.63
2018-03-02T09:55:08.798Z,2311.88
2018-03-02T09:56:08.712Z,2328.75
2018-03-02T09:57:08.633Z,2396.25
2018-03-02T09:58:09.007Z,2278.13
2018-03-02T09:59:08.430Z,2176.88
2018-03-02T10:00:08.332Z,2334.38
2018-03-02T10:01:08.228Z,2295.00
2018-03-02T10:02:08.123Z,2435.63
2018-03-02T10:03:08.130Z,2413.13
2018-03-02T10:04:07.970Z,2362.50
2018-03-02T10:05:07.859Z,2407.50
2018-03-02T10:06:07.759Z,2458.13
2018-03-02T10:07:07.673Z,2345.63
2018-03-02T10:08:07.564Z,2486.25
2018-03-02T10:09:07.539Z,2486.25
2018-03-02T10:10:07.420Z,2491.88
2018-03-02T10:11:07.313Z,2463.75
2018-03-02T10:12:07.195Z,2480.63
2018-03-02T10:13:07.134Z,2430.00
2018-03-02T10:14:06.984Z,2390.63
2018-03-02T10:15:06.916Z,2435.63
2018-03-02T10:16:06.809Z,2356.88
2018-03-02T10:17:06.697Z,2373.75
2018-03-02T10:18:06.597Z,2435.63
2018-03-02T10:19:06.502Z,2385.00
2018-03-02T10:20:06.426Z,2458.13
2018-03-02T10:21:06.639Z,2435.63
2018-03-02T10:22:06.223Z,2418.75
2018-03-02T10:23:06.128Z,2311.88
2018-03-02T10:24:06.028Z,1681.88
2018-03-02T10:25:05.949Z,2458.13
2018-03-02T10:26:05.863Z,2576.25
2018-03-02T10:27:05.780Z,2390.63
2018-03-02T10:28:05.667Z,2525.63
2018-03-02T10:29:05.601Z,2508.75
2018-03-02T10:30:05.475Z,2261.25
2018-03-02T10:31:05.420Z,2486.25
2018-03-02T10:32:05.289Z,2475.00
2018-03-02T10:33:05.228Z,2188.13
2018-03-02T10:34:05.126Z,2418.75
2018-03-02T10:35:05.032Z,2430.00
2018-03-02T10:36:04.952Z,2514.38
2018-03-02T10:37:04.849Z,2576.25
2018-03-02T10:38:04.769Z,2435.63
2018-03-02T10:39:04.681Z,2458.13
2018-03-02T10:40:04.547Z,2520.00
2018-03-02T10:41:04.494Z,2542.50
2018-03-02T10:42:04.371Z,2660.63
2018-03-02T10:43:04.290Z,2632.50
2018-03-02T10:44:04.158Z,2075.63
2018-03-02T10:45:04.114Z,2475.00
2018-03-02T10:46:03.979Z,2092.50
2018-03-02T10:47:03.877Z,2390.63
2018-03-02T10:48:03.793Z,2610.00
2018-03-02T10:49:03.692Z,2671.88
2018-03-02T10:50:03.602Z,2227.50
2018-03-02T10:51:03.536Z,2655.00
2018-03-02T10:52:03.409Z,1755.00
2018-03-02T10:53:03.343Z,2722.50
2018-03-02T10:54:03.256Z,1693.13
2018-03-02T10:55:03.149Z,1546.88
2018-03-02T10:56:03.055Z,2666.25
2018-03-02T10:57:02.987Z,2745.00
2018-03-02T10:58:02.877Z,2396.25
2018-03-02T10:59:02.874Z,2356.88
2018-03-02T11:00:02.716Z,1788.75
2018-03-02T11:01:02.604Z,1822.50
2018-03-02T11:02:02.502Z,2469.38
2018-03-02T11:03:02.650Z,2435.63
2018-03-02T11:04:02.331Z,2553.75
2018-03-02T11:05:02.224Z,1951.88
2018-03-02T11:06:02.110Z,2767.50
2018-03-02T11:07:02.037Z,2795.63
2018-03-02T11:08:02.006Z,2542.50
2018-03-02T11:09:01.884Z,2694.38
2018-03-02T11:10:01.773Z,2396.25
2018-03-02T11:11:01.690Z,2221.88
2018-03-02T11:12:01.603Z,2053.13
2018-03-02T11:13:01.440Z,2581.88
2018-03-02T11:14:01.367Z,2328.75
2018-03-02T11:15:01.294Z,2615.63
2018-03-02T11:16:01.172Z,1760.63
2018-03-02T11:17:01.091Z,2700.00
2018-03-02T11:18:00.986Z,2340.00
2018-03-02T11:19:00.878Z,2019.38
2018-03-02T11:20:00.791Z,2593.13
2018-03-02T11:21:00.720Z,2469.38
2018-03-02T11:22:00.596Z,2463.75
2018-03-02T11:23:00.503Z,2688.75
2018-03-02T11:24:00.412Z,2700.00
2018-03-02T11:25:00.323Z,2581.88
2018-03-02T11:26:00.285Z,2626.88
2018-03-02T11:27:00.167Z,2632.50
2018-03-02T11:28:00.053Z,2649.38
2018-03-02T11:29:00.045Z,2610.00
2018-03-02T11:29:59.868Z,2683.13
2018-03-02T11:30:59.805Z,2745.00
2018-03-02T11:31:59.725Z,2829.38
2018-03-02T11:32:59.656Z,2711.25
2018-03-02T11:33:59.523Z,2700.00
2018-03-02T11:34:59.424Z,2773.13
2018-03-02T11:35:59.340Z,2733.75
2018-03-02T11:36:59.232Z,2705.63
2018-03-02T11:37:59.132Z,2716.88
2018-03-02T11:38:59.112Z,2778.75
2018-03-02T11:39:58.927Z,2778.75
2018-03-02T11:40:58.826Z,2812.50
2018-03-02T11:41:58.782Z,2790.00
2018-03-02T11:42:58.660Z,2801.25
2018-03-02T11:43:58.567Z,2761.88
2018-03-02T11:44:58.499Z,2773.13
2018-03-02T11:45:58.372Z,2671.88
2018-03-02T11:46:58.321Z,2638.13
2018-03-02T11:47:58.198Z,2716.88
2018-03-02T11:48:58.100Z,2801.25
2018-03-02T11:49:58.020Z,2688.75
2018-03-02T11:50:57.983Z,2615.63
2018-03-02T11:51:57.806Z,2615.63
2018-03-02T11:52:57.723Z,2722.50
2018-03-02T11:53:57.658Z,2660.63
2018-03-02T11:54:57.584Z,2632.50
2018-03-02T11:55:57.479Z,2317.50
2018-03-02T11:56:57.437Z,2244.38
2018-03-02T11:57:57.269Z,2396.25
2018-03-02T11:58:57.282Z,2542.50
2018-03-02T11:59:57.121Z,2593.13
2018-03-02T12:00:57.006Z,2536.88
2018-03-02T12:01:56.969Z,2576.25
2018-03-02T12:02:56.869Z,2705.63
2018-03-02T12:03:56.763Z,2778.75
2018-03-02T12:04:56.679Z,2778.75
2018-03-02T12:05:56.564Z,2649.38
2018-03-02T12:06:56.443Z,2761.88
2018-03-02T12:07:56.342Z,2829.38
2018-03-02T12:08:56.299Z,2593.13
2018-03-02T12:09:56.148Z,2407.50
2018-03-02T12:10:56.062Z,1839.38
2018-03-02T12:11:55.969Z,2120.63
2018-03-02T12:12:55.893Z,2356.88
2018-03-02T12:13:55.792Z,2446.88
2018-03-02T12:14:55.733Z,2469.38
2018-03-02T12:15:55.616Z,2503.13
2018-03-02T12:16:55.512Z,2396.25
2018-03-02T12:17:55.414Z,2036.25
2018-03-02T12:18:55.317Z,2058.75
2018-03-02T12:19:55.240Z,2030.63
2018-03-02T12:20:55.200Z,2193.75
2018-03-02T12:21:55.074Z,2019.38
2018-03-02T12:22:54.947Z,2165.63
2018-03-02T12:23:54.863Z,2098.13
2018-03-02T12:24:54.804Z,2030.63
2018-03-02T12:25:54.702Z,1783.13
2018-03-02T12:26:54.679Z,1805.63
2018-03-02T12:27:54.517Z,1771.88
2018-03-02T12:28:54.448Z,1777.50
2018-03-02T12:29:54.332Z,1681.88
2018-03-02T12:30:54.241Z,1659.38
2018-03-02T12:31:54.133Z,1552.50
2018-03-02T12:32:54.076Z,1586.25
2018-03-02T12:33:53.946Z,1513.13
2018-03-02T12:34:53.832Z,1558.13
2018-03-02T12:35:53.751Z,1530.00
2018-03-02T12:36:53.644Z,1462.50
2018-03-02T12:37:53.559Z,1468.13
2018-03-02T12:38:53.480Z,1496.25
2018-03-02T12:39:53.382Z,1541.25
2018-03-02T12:40:53.245Z,1726.88
2018-03-02T12:41:53.176Z,1833.75